SACO/COR METAR and TAF weather

Enter ICAO airport designator
Station Type Date Time Source
SACO METAR 2019/06/18 15:00 UTC NOAA

SACO 181500Z 22003KT CAVOK 15/M01 Q1019 NOSIG


Station Type Date Time Source
SACO Decoded METAR 2019/06/18 15:00 UTC NOAA

Cordoba Aerodrome, Argentina (SACO) 31-19S 064-13W 474M
Jun 18, 2019 - 11:00 AM EDT / 2019.06.18 1500 UTC
Wind: from the SW (220 degrees) at 3 MPH (3 KT):0
Visibility: greater than 7 mile(s):0
Temperature: 59 F (15 C)
Dew Point: 30 F (-1 C)
Relative Humidity: 33%
Pressure (altimeter): 30.09 in. Hg (1019 hPa)
ob: SACO 181500Z 22003KT CAVOK 15/M01 Q1019 NOSIG
cycle: 15

Station Type Date Time Source
SACO TAF 2019/06/18 12:15 UTC NOAA

TAF TAF SACO 181100Z 1812/1912 36005KT 8000 NSC TX17/1818Z TN03/1910Z
BECMG 1813/1815 25005KT CAVOK
BECMG 1908/1910 30005KT 8000 NSC
BECMG 1910/1912 32010KT CAVOK

Example: see airport list